METAR Data
IDs: Format: Raw Decoded Include TAF

Data at: 1303 UTC 26 Feb 2021

EDAH 261250Z 28009G19KT 250V320 9999 BKN022 08/04 Q1027